Time;durP1;ratioP1;P1;durP2;ratioP2;P2;SDS_P1;SDS_P2;PMS_P1;PMS_P2;Temp;Humidity;BMP_temperature;BMP_pressure;BME280_temperature;BME280_humidity;BME280_pressure;Samples;Min_cycle;Max_cycle;Signal;HPM_P1;HPM_P2
2021/12/12 00:01:38;;;;;;;3.17;1.67;;;22.30;77.40;;;;;;5066255;28;20032;-55
2021/12/12 00:04:13;;;;;;;3.97;1.88;;;22.40;77.40;;;;;;5069797;28;20479;-56
2021/12/12 00:06:56;;;;;;;3.97;1.85;;;22.30;77.50;;;;;;5064531;28;20033;-53
2021/12/12 00:09:36;;;;;;;3.50;1.83;;;22.40;77.90;;;;;;5069589;28;20020;-59
2021/12/12 00:12:08;;;;;;;3.90;1.38;;;22.50;75.20;;;;;;5065563;28;20033;-57
2021/12/12 00:14:36;;;;;;;4.97;1.85;;;22.50;72.30;;;;;;5069775;28;20608;-58
2021/12/12 00:17:08;;;;;;;6.57;1.75;;;22.50;72.20;;;;;;5065571;28;20075;-61
2021/12/12 00:19:36;;;;;;;6.22;1.35;;;22.50;72.00;;;;;;5066734;28;20117;-60
2021/12/12 00:22:08;;;;;;;7.78;1.77;;;22.50;71.70;;;;;;5069431;28;20025;-61
2021/12/12 00:24:37;;;;;;;4.18;1.38;;;22.50;70.90;;;;;;5068719;28;20052;-61
2021/12/12 00:27:05;;;;;;;8.13;1.75;;;22.60;71.30;;;;;;5066135;28;20029;-60
2021/12/12 00:29:34;;;;;;;6.00;1.88;;;22.70;71.00;;;;;;5065975;28;20033;-57
2021/12/12 00:32:07;;;;;;;6.68;1.77;;;22.70;70.20;;;;;;5069358;28;20036;-60
2021/12/12 00:34:39;;;;;;;8.32;1.83;;;22.80;69.60;;;;;;5065060;28;20564;-63
2021/12/12 00:37:09;;;;;;;6.40;1.80;;;22.80;69.40;;;;;;5062641;28;20486;-59
2021/12/12 00:39:40;;;;;;;9.15;1.52;;;22.90;69.20;;;;;;5067382;28;20487;-59
2021/12/12 00:42:16;;;;;;;6.88;1.75;;;22.90;69.00;;;;;;5065650;28;20055;-62
2021/12/12 00:44:48;;;;;;;5.28;1.50;;;22.90;68.40;;;;;;5069957;28;20050;-58
2021/12/12 00:47:17;;;;;;;6.28;2.35;;;23.00;67.90;;;;;;5065207;28;20047;-59
2021/12/12 00:49:45;;;;;;;8.30;2.25;;;23.10;67.30;;;;;;5069560;28;20040;-58
2021/12/12 00:52:22;;;;;;;5.53;1.75;;;23.10;66.60;;;;;;5069235;28;20083;-61
2021/12/12 00:54:51;;;;;;;7.22;1.92;;;23.10;67.50;;;;;;5068583;28;20036;-55
2021/12/12 00:57:23;;;;;;;11.77;1.65;;;23.10;68.00;;;;;;5066591;28;20016;-58
2021/12/12 00:59:50;;;;;;;6.05;1.60;;;23.10;67.40;;;;;;5067846;28;20044;-60
2021/12/12 01:02:22;;;;;;;4.97;1.63;;;23.20;67.20;;;;;;5068307;28;20029;-58
2021/12/12 01:04:56;;;;;;;7.20;1.85;;;23.20;66.60;;;;;;5071850;28;20510;-59
2021/12/12 01:07:26;;;;;;;9.10;2.00;;;23.00;68.10;;;;;;5072058;28;20108;-59
2021/12/12 01:10:00;;;;;;;8.32;2.08;;;22.90;68.60;;;;;;5071658;28;20074;-60
2021/12/12 01:12:32;;;;;;;5.90;2.03;;;22.90;69.20;;;;;;5071490;28;20121;-59
2021/12/12 01:15:16;;;;;;;5.28;2.40;;;22.90;69.00;;;;;;5074937;28;20044;-51
2021/12/12 01:17:47;;;;;;;6.47;2.00;;;22.90;69.40;;;;;;5074025;28;20055;-57
2021/12/12 01:20:33;;;;;;;7.03;1.90;;;22.90;69.50;;;;;;5075261;28;20459;-57
2021/12/12 01:23:10;;;;;;;5.13;2.00;;;23.00;70.40;;;;;;5075557;28;20020;-59
2021/12/12 01:25:44;;;;;;;8.18;1.75;;;23.00;70.40;;;;;;5075124;28;20131;-59
2021/12/12 01:28:14;;;;;;;7.07;1.60;;;23.00;70.50;;;;;;5075120;28;20075;-62
2021/12/12 01:30:43;;;;;;;5.15;1.88;;;23.10;70.60;;;;;;5073804;28;20029;-61
2021/12/12 01:33:12;;;;;;;9.50;2.17;;;23.20;70.50;;;;;;5075383;28;20556;-51
2021/12/12 01:35:41;;;;;;;5.97;2.03;;;23.20;70.50;;;;;;5074723;28;20126;-57
2021/12/12 01:40:59;;;;;;;6.43;1.60;;;23.30;70.70;;;;;;5075192;28;20444;-50
2021/12/12 01:43:41;;;;;;;4.05;1.58;;;23.30;70.40;;;;;;5075083;28;20048;-58
2021/12/12 01:46:23;;;;;;;8.05;1.85;;;23.40;70.40;;;;;;5064724;28;20098;-55
2021/12/12 01:49:03;;;;;;;9.75;1.83;;;23.40;70.90;;;;;;5070478;28;20020;-52
2021/12/12 01:51:31;;;;;;;9.20;1.80;;;23.40;70.80;;;;;;5072769;28;20037;-58
2021/12/12 01:54:02;;;;;;;7.97;1.55;;;23.40;70.80;;;;;;5070155;28;20053;-55
2021/12/12 01:56:34;;;;;;;5.50;1.55;;;23.50;70.70;;;;;;5071783;28;20028;-56
2021/12/12 01:59:07;;;;;;;4.60;1.40;;;23.40;70.30;;;;;;5070320;28;20044;-56
2021/12/12 02:01:48;;;;;;;6.40;2.05;;;23.50;71.00;;;;;;5068617;28;20035;-57
2021/12/12 02:04:20;;;;;;;6.60;1.77;;;23.50;71.50;;;;;;5071333;28;20036;-50
2021/12/12 02:06:51;;;;;;;6.88;2.00;;;23.50;70.90;;;;;;5071915;28;20090;-54
2021/12/12 02:09:20;;;;;;;125.95;114.05;;;23.50;70.60;;;;;;5068582;28;20035;-48
2021/12/12 02:11:54;;;;;;;27.48;24.42;;;23.60;70.00;;;;;;5071402;28;20023;-50
2021/12/12 02:14:23;;;;;;;30.20;25.10;;;23.60;68.30;;;;;;5071177;28;20430;-52
2021/12/12 02:17:02;;;;;;;56.92;39.35;;;23.60;67.40;;;;;;5071911;28;20063;-53
2021/12/12 02:19:37;;;;;;;87.88;53.97;;;23.60;66.80;;;;;;5067765;28;20036;-50
2021/12/12 02:22:33;;;;;;;124.93;79.05;;;23.60;65.20;;;;;;5068166;28;20157;-53
2021/12/12 02:36:24;;;;;;;14.05;5.75;;;23.70;65.80;;;;;;5071374;28;20047;-58
2021/12/12 02:38:53;;;;;;;12.07;5.47;;;23.80;64.50;;;;;;5073312;28;20051;-57
2021/12/12 02:41:24;;;;;;;16.38;5.30;;;23.80;65.90;;;;;;5074091;28;20035;-58
2021/12/12 02:43:58;;;;;;;11.43;4.47;;;23.80;65.80;;;;;;5073543;28;20044;-55
2021/12/12 02:46:34;;;;;;;9.95;4.28;;;23.80;65.80;;;;;;5073715;28;20031;-59
2021/12/12 02:49:24;;;;;;;8.77;3.40;;;23.90;66.80;;;;;;5073826;28;20059;-58
2021/12/12 02:51:53;;;;;;;11.20;4.60;;;23.80;63.90;;;;;;5072368;28;20051;-56
2021/12/12 02:54:22;;;;;;;12.90;3.97;;;23.90;66.10;;;;;;5072014;28;20124;-57
2021/12/12 02:56:52;;;;;;;10.02;3.10;;;23.90;67.00;;;;;;5072966;28;20028;-59
2021/12/12 02:59:23;;;;;;;5.95;2.50;;;24.00;65.70;;;;;;5073485;28;20021;-58
2021/12/12 03:01:55;;;;;;;7.57;2.63;;;23.90;65.10;;;;;;5073408;28;20464;-56
2021/12/12 03:04:25;;;;;;;9.38;3.00;;;24.00;66.20;;;;;;5072887;28;20035;-58
2021/12/12 03:06:53;;;;;;;9.93;2.75;;;24.10;66.00;;;;;;5072570;28;20340;-58
2021/12/12 03:09:24;;;;;;;10.38;3.38;;;24.10;67.30;;;;;;5072340;28;20028;-59
2021/12/12 03:11:59;;;;;;;16.83;3.10;;;24.10;67.40;;;;;;5073075;28;20425;-57
2021/12/12 03:14:32;;;;;;;9.38;2.80;;;24.20;67.00;;;;;;5071763;28;20033;-59
2021/12/12 03:17:07;;;;;;;14.10;2.80;;;24.10;66.90;;;;;;5073167;28;20097;-59
2021/12/12 03:19:35;;;;;;;11.13;2.58;;;24.00;66.40;;;;;;5072807;28;20041;-58
2021/12/12 03:22:05;;;;;;;10.68;2.67;;;24.00;67.60;;;;;;5072590;28;20036;-59
2021/12/12 03:24:32;;;;;;;11.80;2.13;;;24.10;68.50;;;;;;5072203;28;20025;-60
2021/12/12 03:27:02;;;;;;;7.32;2.40;;;24.10;66.70;;;;;;5072780;28;20032;-58
2021/12/12 03:29:30;;;;;;;12.70;2.95;;;24.10;68.20;;;;;;5072989;28;20035;-59
2021/12/12 03:32:06;;;;;;;10.30;2.35;;;24.10;68.00;;;;;;5072814;28;20114;-59
2021/12/12 03:34:38;;;;;;;7.68;2.42;;;24.10;67.90;;;;;;5072834;28;20036;-55
2021/12/12 03:37:08;;;;;;;8.98;2.80;;;24.10;68.70;;;;;;5071950;28;20084;-58
2021/12/12 03:39:40;;;;;;;10.95;2.78;;;24.10;69.60;;;;;;5072636;28;20104;-59
2021/12/12 03:42:10;;;;;;;;;;;24.10;69.50;;;;;;5073156;28;20040;-56
2021/12/12 03:44:39;;;;;;;13.30;2.67;;;24.10;69.70;;;;;;5072491;28;19912;-56
2021/12/12 03:47:11;;;;;;;12.90;2.83;;;24.10;67.50;;;;;;5072691;28;20098;-61
2021/12/12 03:49:39;;;;;;;9.07;2.78;;;24.10;67.60;;;;;;5072649;28;20082;-59
2021/12/12 03:52:09;;;;;;;20.00;3.20;;;24.20;66.70;;;;;;5072160;28;20032;-58
2021/12/12 03:54:37;;;;;;;17.65;3.10;;;24.20;67.60;;;;;;5072483;28;20037;-60
2021/12/12 03:57:08;;;;;;;19.55;3.30;;;24.20;67.20;;;;;;5072191;28;20056;-51
2021/12/12 03:59:35;;;;;;;17.35;2.95;;;24.20;67.40;;;;;;5072498;28;20048;-60
2021/12/12 04:02:05;;;;;;;13.43;3.17;;;24.10;66.90;;;;;;5072220;28;20024;-60
2021/12/12 04:04:37;;;;;;;10.40;2.55;;;24.10;67.10;;;;;;5070951;28;20024;-58
2021/12/12 04:07:12;;;;;;;11.80;3.70;;;24.10;68.20;;;;;;5072395;28;20471;-56
2021/12/12 04:09:40;;;;;;;12.77;3.13;;;24.10;69.20;;;;;;5071874;28;20033;-59
2021/12/12 04:12:10;;;;;;;11.90;2.95;;;24.10;69.60;;;;;;5070779;28;20459;-56
2021/12/12 04:14:39;;;;;;;11.32;2.63;;;24.20;69.20;;;;;;5071478;28;20091;-58
2021/12/12 04:17:11;;;;;;;12.55;2.72;;;24.30;69.10;;;;;;5072469;28;20452;-57
2021/12/12 04:19:40;;;;;;;13.23;3.60;;;24.40;69.30;;;;;;5072165;28;20463;-54
2021/12/12 04:22:07;;;;;;;23.88;3.15;;;24.40;68.80;;;;;;5071896;28;20028;-59
2021/12/12 04:24:38;;;;;;;16.42;4.72;;;24.40;69.80;;;;;;5071697;28;20081;-60
2021/12/12 04:27:07;;;;;;;10.70;2.85;;;24.50;70.00;;;;;;5072085;28;20024;-57
2021/12/12 04:29:39;;;;;;;16.40;2.65;;;24.50;69.60;;;;;;5071912;28;20035;-55
2021/12/12 04:32:12;;;;;;;16.83;3.45;;;24.50;70.80;;;;;;5070674;28;20048;-56
2021/12/12 04:34:46;;;;;;;14.38;3.33;;;24.50;69.50;;;;;;5071936;28;20052;-56
2021/12/12 04:37:13;;;;;;;12.45;3.55;;;24.50;71.00;;;;;;5072130;28;20025;-57
2021/12/12 04:39:48;;;;;;;11.80;3.08;;;24.40;70.70;;;;;;5071812;28;20104;-64
2021/12/12 04:42:23;;;;;;;9.95;2.75;;;24.30;70.30;;;;;;5071443;28;20028;-65
2021/12/12 04:45:09;;;;;;;19.13;3.22;;;24.30;73.00;;;;;;5071612;28;20025;-67
2021/12/12 04:51:22;;;;;;;18.63;3.20;;;24.30;71.10;;;;;;5076347;28;20039;-67
2021/12/12 04:54:09;;;;;;;14.27;3.15;;;24.10;70.50;;;;;;5076040;28;20068;-66
2021/12/12 04:56:50;;;;;;;12.57;2.83;;;24.20;71.20;;;;;;5075827;28;20032;-69
2021/12/12 04:59:27;;;;;;;13.90;3.40;;;24.20;73.50;;;;;;5075949;28;20443;-64
2021/12/12 05:02:15;;;;;;;15.80;3.47;;;24.30;70.50;;;;;;5075434;28;20740;-67
2021/12/12 05:05:07;;;;;;;15.32;3.50;;;24.30;72.60;;;;;;5076128;28;20028;-66
2021/12/12 05:07:47;;;;;;;;;;;24.20;70.20;;;;;;5075971;28;20029;-58
2021/12/12 05:10:23;;;;;;;17.70;3.25;;;24.30;71.50;;;;;;5075285;28;20367;-58
2021/12/12 05:13:10;;;;;;;18.10;3.28;;;24.30;71.70;;;;;;5068266;28;20033;-51
2021/12/12 05:15:42;;;;;;;16.00;3.00;;;24.30;71.50;;;;;;5071020;28;20115;-52
2021/12/12 05:18:15;;;;;;;14.20;3.92;;;24.30;72.30;;;;;;5071633;28;20071;-54
2021/12/12 05:20:54;;;;;;;9.82;3.42;;;24.30;72.60;;;;;;5071242;28;20031;-54
2021/12/12 05:23:24;;;;;;;11.05;2.67;;;24.30;72.60;;;;;;5071200;28;20028;-58
2021/12/12 05:26:11;;;;;;;17.23;3.55;;;24.20;73.10;;;;;;5065450;28;20502;-53
2021/12/12 05:28:53;;;;;;;10.65;3.00;;;24.20;73.30;;;;;;5071085;28;20024;-51
2021/12/12 05:31:22;;;;;;;12.80;2.20;;;24.30;74.00;;;;;;5066029;28;20371;-52
2021/12/12 05:33:55;;;;;;;13.00;2.75;;;24.20;73.50;;;;;;5072946;28;20060;-56
2021/12/12 05:36:23;;;;;;;9.60;2.88;;;24.20;73.80;;;;;;5072186;28;20505;-55
2021/12/12 05:38:52;;;;;;;6.68;1.75;;;24.20;73.90;;;;;;5072566;28;20044;-47
2021/12/12 05:41:21;;;;;;;10.30;2.47;;;24.20;74.10;;;;;;5065957;28;20382;-56
2021/12/12 05:43:52;;;;;;;9.23;2.95;;;24.20;73.80;;;;;;5070775;28;20058;-54
2021/12/12 05:46:20;;;;;;;10.07;2.85;;;24.10;74.00;;;;;;5069154;28;20055;-56
2021/12/12 05:48:49;;;;;;;10.85;3.05;;;24.10;74.30;;;;;;5072977;28;20040;-57
2021/12/12 05:51:18;;;;;;;8.25;2.33;;;24.10;74.30;;;;;;5068563;28;20020;-50
2021/12/12 05:53:49;;;;;;;7.47;2.05;;;24.10;74.20;;;;;;5072280;28;20057;-57
2021/12/12 05:56:17;;;;;;;7.63;2.40;;;24.10;74.80;;;;;;5072149;28;20052;-55
2021/12/12 05:58:45;;;;;;;8.35;3.28;;;24.00;75.10;;;;;;5070422;28;20451;-57
2021/12/12 06:01:12;;;;;;;13.70;3.00;;;24.00;75.20;;;;;;5068006;28;20487;-57
2021/12/12 06:03:43;;;;;;;10.75;2.22;;;24.00;75.30;;;;;;5072169;28;20474;-57
2021/12/12 06:06:14;;;;;;;8.85;3.08;;;23.90;75.40;;;;;;5071867;28;20379;-53
2021/12/12 06:08:44;;;;;;;8.80;2.70;;;23.90;75.60;;;;;;5070974;28;20090;-58
2021/12/12 06:11:20;;;;;;;5.45;2.08;;;23.90;74.50;;;;;;5069173;28;20470;-53
2021/12/12 06:13:48;;;;;;;7.85;2.55;;;23.90;75.10;;;;;;5071003;28;20078;-53
2021/12/12 06:16:21;;;;;;;9.57;2.15;;;23.90;75.70;;;;;;5070037;28;20328;-55
2021/12/12 06:19:16;;;;;;;9.68;2.67;;;23.90;75.80;;;;;;5068516;28;20032;-60
2021/12/12 06:21:44;;;;;;;9.20;2.30;;;23.80;76.30;;;;;;5065799;28;20037;-51
2021/12/12 06:24:13;;;;;;;8.13;2.63;;;23.80;76.20;;;;;;5071751;28;20362;-54
2021/12/12 06:26:41;;;;;;;8.60;2.42;;;23.80;76.50;;;;;;5071097;28;20124;-56
2021/12/12 06:29:09;;;;;;;7.78;2.25;;;23.80;76.70;;;;;;5071718;28;20479;-57
2021/12/12 06:31:44;;;;;;;9.98;2.58;;;23.80;77.20;;;;;;5068245;28;20031;-56
2021/12/12 06:34:13;;;;;;;9.18;2.72;;;23.70;76.50;;;;;;5070978;28;20043;-61
2021/12/12 06:36:41;;;;;;;9.98;2.42;;;23.70;76.70;;;;;;5071428;28;20107;-57
2021/12/12 06:39:11;;;;;;;11.30;2.53;;;23.70;77.30;;;;;;5071939;28;20025;-51
2021/12/12 06:41:39;;;;;;;6.85;2.30;;;23.70;77.00;;;;;;5068815;28;20017;-55
2021/12/12 06:44:09;;;;;;;11.18;2.42;;;23.70;77.10;;;;;;5072219;28;20058;-56
2021/12/12 06:46:40;;;;;;;5.80;1.77;;;23.70;76.80;;;;;;5072544;28;20028;-46
2021/12/12 06:49:10;;;;;;;5.70;2.00;;;23.60;77.00;;;;;;5071329;28;20046;-49
2021/12/12 06:51:48;;;;;;;10.52;2.10;;;23.60;77.10;;;;;;5067089;28;20021;-55
2021/12/12 06:54:18;;;;;;;9.48;1.88;;;23.70;76.80;;;;;;5070345;28;20040;-56
2021/12/12 06:56:47;;;;;;;5.35;1.75;;;23.60;77.30;;;;;;5069518;28;20043;-53
2021/12/12 06:59:15;;;;;;;6.57;2.10;;;23.60;77.30;;;;;;5071028;28;20104;-52
2021/12/12 07:01:43;;;;;;;7.80;2.35;;;23.50;77.20;;;;;;5067547;28;20020;-56
2021/12/12 07:04:13;;;;;;;7.90;2.25;;;23.50;77.30;;;;;;5070730;28;20032;-52
2021/12/12 07:06:41;;;;;;;8.50;2.22;;;23.50;77.00;;;;;;5070637;28;20036;-56
2021/12/12 07:09:10;;;;;;;5.20;1.90;;;23.50;76.80;;;;;;5071295;28;20048;-51
2021/12/12 07:11:39;;;;;;;5.05;2.00;;;23.40;76.50;;;;;;5066582;28;20059;-51
2021/12/12 07:14:12;;;;;;;11.63;2.03;;;23.40;76.80;;;;;;5070133;28;20036;-57
2021/12/12 07:16:40;;;;;;;9.57;2.40;;;23.40;77.10;;;;;;5066988;28;20435;-59
2021/12/12 07:19:08;;;;;;;7.20;2.25;;;23.30;77.60;;;;;;5067776;28;20024;-52
2021/12/12 07:21:41;;;;;;;5.40;2.10;;;23.30;77.60;;;;;;5066496;28;20071;-55
2021/12/12 07:24:10;;;;;;;7.93;2.20;;;23.30;77.70;;;;;;5066713;28;20020;-53
2021/12/12 07:26:38;;;;;;;6.65;2.20;;;23.30;77.40;;;;;;5066786;28;20134;-58
2021/12/12 07:29:06;;;;;;;6.03;2.15;;;23.20;77.20;;;;;;5069949;28;20021;-53
2021/12/12 07:31:37;;;;;;;5.75;2.42;;;23.20;77.00;;;;;;5066634;28;20036;-54
2021/12/12 07:34:10;;;;;;;11.93;2.63;;;23.20;77.00;;;;;;5070236;28;20444;-52
2021/12/12 07:36:41;;;;;;;7.53;2.22;;;23.20;76.10;;;;;;5069955;28;20439;-51
2021/12/12 07:39:12;;;;;;;9.48;1.83;;;23.20;77.70;;;;;;5070488;28;20051;-51
2021/12/12 07:41:42;;;;;;;6.20;2.00;;;23.10;77.60;;;;;;5063997;28;20040;-52
2021/12/12 07:44:12;;;;;;;11.13;2.47;;;23.10;77.60;;;;;;5069212;28;20036;-51
2021/12/12 07:46:42;;;;;;;7.32;1.80;;;23.10;77.70;;;;;;5070203;28;20059;-53
2021/12/12 07:49:09;;;;;;;6.40;1.92;;;23.10;77.80;;;;;;5070511;28;20111;-51
2021/12/12 07:51:41;;;;;;;6.30;2.00;;;23.00;77.70;;;;;;5065996;28;20032;-54
2021/12/12 07:54:09;;;;;;;5.85;2.10;;;23.00;78.00;;;;;;5069788;28;20060;-54
2021/12/12 07:56:43;;;;;;;5.88;2.20;;;23.00;78.00;;;;;;5070672;28;20040;-54
2021/12/12 07:59:11;;;;;;;7.35;2.00;;;23.00;77.90;;;;;;5069623;28;20070;-54
2021/12/12 08:01:47;;;;;;;5.03;1.77;;;23.00;78.20;;;;;;5065971;28;20444;-52
2021/12/12 08:04:16;;;;;;;7.35;2.17;;;22.90;78.20;;;;;;5070104;28;20064;-52
2021/12/12 08:06:44;;;;;;;5.53;1.58;;;22.90;78.30;;;;;;5069444;28;20024;-55
2021/12/12 08:09:13;;;;;;;6.03;2.30;;;22.90;78.20;;;;;;5070078;28;20028;-59
2021/12/12 08:11:42;;;;;;;6.78;2.08;;;22.90;78.10;;;;;;5066752;28;20017;-56
2021/12/12 08:14:16;;;;;;;5.32;2.03;;;22.90;78.30;;;;;;5068913;28;20037;-51
2021/12/12 08:16:46;;;;;;;7.10;2.15;;;22.80;78.30;;;;;;5070196;28;20027;-57
2021/12/12 08:19:13;;;;;;;7.22;2.67;;;22.80;78.30;;;;;;5070352;28;20016;-53
2021/12/12 08:21:42;;;;;;;5.07;1.67;;;22.80;78.50;;;;;;5066448;28;20494;-54
2021/12/12 08:24:11;;;;;;;6.88;2.05;;;22.70;79.00;;;;;;5073905;28;20032;-48
2021/12/12 08:26:42;;;;;;;11.65;2.25;;;22.70;78.40;;;;;;5074005;28;20530;-52
2021/12/12 08:29:11;;;;;;;5.93;2.40;;;22.70;78.70;;;;;;5073714;28;20029;-51
2021/12/12 08:31:39;;;;;;;5.35;1.63;;;22.70;78.70;;;;;;5068637;28;20040;-54
2021/12/12 08:34:16;;;;;;;6.45;1.92;;;22.70;78.60;;;;;;5073849;28;20421;-53
2021/12/12 08:36:48;;;;;;;5.97;1.85;;;22.70;78.50;;;;;;5073131;28;20021;-56
2021/12/12 08:39:17;;;;;;;4.55;1.48;;;22.60;78.30;;;;;;5073943;28;20024;-53
2021/12/12 08:41:49;;;;;;;9.48;1.83;;;22.60;78.30;;;;;;5070835;28;20386;-58
2021/12/12 08:44:19;;;;;;;4.38;1.50;;;22.50;74.40;;;;;;5073435;28;20038;-52
2021/12/12 08:46:50;;;;;;;5.43;1.85;;;22.50;77.80;;;;;;5071350;28;20426;-56
2021/12/12 08:49:19;;;;;;;8.25;1.92;;;22.50;78.10;;;;;;5071630;28;20056;-54
2021/12/12 08:51:52;;;;;;;5.75;2.03;;;22.50;78.30;;;;;;5069493;28;20467;-55
2021/12/12 08:54:27;;;;;;;9.52;1.95;;;22.50;78.40;;;;;;5072533;28;20036;-54
2021/12/12 08:57:05;;;;;;;4.45;1.50;;;22.50;78.70;;;;;;5071079;28;20036;-55
2021/12/12 08:59:39;;;;;;;8.13;1.83;;;22.50;78.60;;;;;;5067278;28;20804;-59
2021/12/12 09:02:11;;;;;;;4.53;1.73;;;22.40;78.70;;;;;;5066090;28;20033;-54
2021/12/12 09:04:52;;;;;;;5.28;1.60;;;22.40;78.80;;;;;;5068424;28;20017;-56
2021/12/12 09:07:25;;;;;;;5.55;1.27;;;22.40;79.20;;;;;;5068276;28;20103;-58
2021/12/12 09:10:10;;;;;;;6.63;2.20;;;22.40;79.10;;;;;;5070846;28;20107;-57
2021/12/12 09:12:42;;;;;;;7.70;1.98;;;22.40;79.20;;;;;;5068151;28;20538;-56
2021/12/12 09:15:22;;;;;;;3.90;1.60;;;22.40;79.10;;;;;;5070724;28;20041;-54
2021/12/12 09:17:55;;;;;;;4.63;1.75;;;22.30;79.10;;;;;;5070894;28;20064;-56
2021/12/12 09:20:46;;;;;;;6.38;1.38;;;22.30;79.00;;;;;;5073275;28;20042;-54
2021/12/12 09:23:32;;;;;;;4.90;1.67;;;22.30;79.10;;;;;;5069677;28;20020;-55
2021/12/12 09:26:18;;;;;;;6.88;1.70;;;22.30;79.00;;;;;;5070998;28;20032;-58
2021/12/12 09:28:57;;;;;;;5.68;1.65;;;22.20;78.90;;;;;;5069442;28;20074;-53
2021/12/12 09:31:38;;;;;;;5.65;1.80;;;22.20;79.10;;;;;;5069413;28;20048;-51
2021/12/12 09:34:23;;;;;;;4.63;1.30;;;22.20;79.10;;;;;;5072044;28;20035;-58
2021/12/12 09:37:01;;;;;;;5.72;1.90;;;22.20;79.00;;;;;;5071832;28;20039;-50
2021/12/12 09:39:36;;;;;;;7.30;1.42;;;22.20;78.90;;;;;;5073113;28;20475;-55
2021/12/12 09:42:28;;;;;;;5.15;1.58;;;22.20;79.30;;;;;;5069261;28;20417;-54
2021/12/12 09:45:18;;;;;;;4.47;1.47;;;22.20;79.10;;;;;;5070168;28;20032;-57
2021/12/12 09:51:14;;;;;;;2.97;1.33;;;22.10;78.70;;;;;;5060388;28;20114;-53
2021/12/12 09:51:39;;;;;;;4.00;1.58;;;22.20;78.90;;;;;;5068938;28;20025;-60
2021/12/12 09:54:27;;;;;;;3.25;1.42;;;22.10;78.80;;;;;;5071874;28;20076;-54
2021/12/12 09:57:19;;;;;;;4.05;1.35;;;22.10;78.70;;;;;;5069819;28;20021;-60
2021/12/12 09:59:54;;;;;;;;;;;22.10;78.50;;;;;;5068963;28;20391;-56
2021/12/12 10:02:24;;;;;;;6.15;1.98;;;22.10;78.50;;;;;;5066726;28;19912;-56
2021/12/12 10:05:12;;;;;;;4.30;1.45;;;22.10;78.80;;;;;;5072181;28;20020;-58
2021/12/12 10:08:04;;;;;;;6.95;2.03;;;22.00;79.00;;;;;;5071022;28;20056;-53
2021/12/12 10:10:41;;;;;;;5.95;2.05;;;22.00;79.70;;;;;;5068729;28;20024;-58
2021/12/12 10:13:39;;;;;;;4.55;1.50;;;22.00;78.80;;;;;;5070414;28;20062;-55
2021/12/12 10:16:31;;;;;;;4.45;1.67;;;22.00;78.90;;;;;;5072064;28;20033;-58
2021/12/12 10:19:12;;;;;;;8.65;1.55;;;22.00;78.90;;;;;;5069242;28;20475;-54
2021/12/12 10:22:03;;;;;;;3.28;1.50;;;22.00;78.80;;;;;;5069094;28;20067;-55
2021/12/12 10:24:35;;;;;;;4.33;1.13;;;22.00;78.70;;;;;;5072703;28;20024;-54
2021/12/12 10:27:24;;;;;;;5.60;1.67;;;22.00;78.70;;;;;;5071681;28;20494;-58
2021/12/12 10:30:21;;;;;;;5.32;1.95;;;22.00;78.80;;;;;;5072651;28;20086;-58
2021/12/12 10:33:31;;;;;;;7.15;1.80;;;22.00;78.70;;;;;;5068488;28;20024;-57
2021/12/12 10:36:07;;;;;;;3.83;1.50;;;21.90;78.70;;;;;;5009392;28;20034;-58
2021/12/12 10:39:02;;;;;;;5.90;1.73;;;21.90;78.70;;;;;;5059849;28;20495;-57
2021/12/12 10:41:43;;;;;;;3.97;1.40;;;21.90;78.70;;;;;;5065646;28;20035;-53
2021/12/12 10:44:27;;;;;;;3.60;1.30;;;21.90;78.70;;;;;;5068761;28;20471;-53
2021/12/12 10:47:15;;;;;;;5.32;1.52;;;21.90;78.70;;;;;;5071113;28;20033;-47
2021/12/12 10:50:02;;;;;;;7.13;1.40;;;21.90;78.80;;;;;;5069962;28;20112;-56
2021/12/12 10:52:53;;;;;;;5.57;1.50;;;21.90;79.00;;;;;;5065313;28;20348;-51
2021/12/12 10:55:34;;;;;;;5.28;1.58;;;21.90;79.10;;;;;;5070323;28;20119;-60
2021/12/12 10:58:21;;;;;;;4.75;1.83;;;21.90;79.30;;;;;;5072366;28;20020;-57
2021/12/12 11:00:55;;;;;;;4.15;1.45;;;21.80;79.00;;;;;;5073953;28;20040;-54
2021/12/12 11:03:30;;;;;;;4.82;1.60;;;21.80;79.00;;;;;;5073913;28;20020;-56
2021/12/12 11:06:23;;;;;;;5.10;1.58;;;21.70;78.80;;;;;;5073482;28;20017;-58
2021/12/12 11:08:59;;;;;;;7.03;1.67;;;21.70;79.10;;;;;;5071139;28;20029;-57
2021/12/12 11:11:45;;;;;;;3.78;1.35;;;21.70;79.20;;;;;;5073113;28;20032;-56
2021/12/12 11:14:42;;;;;;;;;;;;;;;;;;;;;
2021/12/12 11:17:24;;;;;;;7.53;2.00;;;21.70;79.30;;;;;;5073817;28;20463;-50
2021/12/12 11:20:02;;;;;;;3.08;1.20;;;21.70;79.40;;;;;;5073083;28;20093;-53
2021/12/12 11:22:45;;;;;;;7.25;2.35;;;21.70;79.20;;;;;;5073232;28;20033;-57
2021/12/12 11:25:23;;;;;;;6.65;2.15;;;21.70;79.30;;;;;;5070868;28;20032;-55
2021/12/12 11:28:00;;;;;;;5.28;1.70;;;21.70;79.20;;;;;;5073223;28;20491;-60
2021/12/12 11:30:59;;;;;;;3.70;1.38;;;21.60;79.10;;;;;;5072126;28;20123;-58
2021/12/12 11:33:31;;;;;;;5.20;1.40;;;21.60;79.20;;;;;;5073286;28;20036;-49
2021/12/12 11:36:02;;;;;;;7.22;1.52;;;21.70;79.20;;;;;;5072860;28;20043;-50
2021/12/12 11:38:36;;;;;;;6.15;1.70;;;21.60;79.10;;;;;;5072741;28;20025;-48
2021/12/12 11:41:42;;;;;;;7.20;1.42;;;21.60;79.20;;;;;;5073175;28;20127;-51
2021/12/12 11:44:33;;;;;;;4.15;1.40;;;21.60;79.30;;;;;;5070582;28;20067;-47
2021/12/12 11:47:10;;;;;;;5.63;1.90;;;21.70;79.30;;;;;;5073024;28;20032;-48
2021/12/12 11:49:58;;;;;;;6.07;1.98;;;21.60;79.40;;;;;;5073090;28;20024;-55
2021/12/12 11:52:50;;;;;;;4.78;1.92;;;21.60;79.40;;;;;;5072692;28;20044;-53
2021/12/12 11:55:47;;;;;;;5.03;1.73;;;21.60;79.50;;;;;;5072316;28;20064;-52
2021/12/12 11:58:25;;;;;;;3.67;1.50;;;21.60;79.90;;;;;;5071844;28;20086;-57
2021/12/12 12:01:32;;;;;;;5.18;1.23;;;21.60;80.10;;;;;;5072813;28;20032;-47
2021/12/12 12:04:15;;;;;;;5.40;1.42;;;21.60;80.60;;;;;;5049299;28;20421;-56
2021/12/12 12:06:57;;;;;;;4.57;1.23;;;21.60;80.70;;;;;;5072426;28;20438;-56
2021/12/12 12:09:42;;;;;;;8.70;1.67;;;21.60;80.60;;;;;;5071466;28;20082;-55
2021/12/12 12:12:19;;;;;;;7.28;1.67;;;21.60;80.60;;;;;;5071693;28;20025;-57
2021/12/12 12:15:11;;;;;;;4.68;1.60;;;21.50;80.60;;;;;;5073015;28;20029;-58
2021/12/12 12:18:09;;;;;;;5.00;1.50;;;21.60;80.90;;;;;;5072889;28;20053;-58
2021/12/12 12:20:45;;;;;;;7.90;1.90;;;21.50;81.10;;;;;;5072613;28;20104;-59
2021/12/12 12:23:20;;;;;;;7.63;1.73;;;21.60;81.40;;;;;;5071451;28;20395;-51
2021/12/12 12:28:57;;;;;;;6.03;2.15;;;21.50;82.00;;;;;;5072986;28;20120;-60
2021/12/12 12:31:54;;;;;;;4.30;1.65;;;21.50;81.70;;;;;;5072731;28;20025;-54
2021/12/12 12:34:58;;;;;;;6.10;1.98;;;21.50;82.00;;;;;;5071836;28;20043;-58
2021/12/12 12:38:02;;;;;;;10.38;1.65;;;21.40;82.40;;;;;;5072460;28;20407;-60
2021/12/12 12:40:48;;;;;;;10.35;2.58;;;21.40;82.60;;;;;;5072568;28;20116;-56
2021/12/12 12:43:51;;;;;;;5.95;2.10;;;21.40;83.00;;;;;;5072729;28;20032;-58
2021/12/12 12:46:46;;;;;;;8.48;2.67;;;21.40;83.60;;;;;;5072437;28;20027;-59
2021/12/12 12:49:46;;;;;;;9.48;2.70;;;21.40;84.30;;;;;;5072859;28;20368;-59
2021/12/12 12:52:44;;;;;;;5.65;2.30;;;21.40;84.70;;;;;;5072177;28;20071;-59
2021/12/12 12:55:51;;;;;;;7.45;2.17;;;21.40;84.50;;;;;;5072707;28;20037;-54
2021/12/12 12:58:50;;;;;;;9.90;2.65;;;21.30;84.60;;;;;;5072994;28;20111;-58
2021/12/12 13:01:38;;;;;;;6.45;2.17;;;21.30;84.40;;;;;;5072760;28;20073;-59
2021/12/12 13:04:26;;;;;;;8.23;2.42;;;21.30;85.00;;;;;;5071347;28;20133;-58
2021/12/12 13:07:09;;;;;;;8.50;2.13;;;21.20;85.60;;;;;;5072272;28;20035;-49
2021/12/12 13:09:48;;;;;;;5.65;1.88;;;21.20;86.30;;;;;;5075773;28;20070;-57
2021/12/12 13:12:29;;;;;;;11.27;2.58;;;21.20;86.10;;;;;;5076488;28;20025;-58
2021/12/12 13:15:22;;;;;;;8.13;2.40;;;21.20;86.30;;;;;;5075956;28;20092;-61
2021/12/12 13:18:09;;;;;;;6.97;2.25;;;21.20;86.80;;;;;;5069289;28;20112;-58
2021/12/12 13:20:52;;;;;;;6.60;1.80;;;21.20;87.50;;;;;;5071713;28;20024;-60
2021/12/12 13:23:42;;;;;;;10.25;2.50;;;21.10;87.90;;;;;;5070914;28;20025;-58
2021/12/12 13:26:40;;;;;;;6.00;2.00;;;21.20;88.40;;;;;;5072463;28;20028;-58
2021/12/12 13:29:40;;;;;;;8.35;2.13;;;21.10;88.40;;;;;;5068337;28;20024;-58
2021/12/12 13:32:25;;;;;;;6.35;2.10;;;21.10;88.60;;;;;;5064533;28;20040;-57
2021/12/12 13:35:12;;;;;;;6.43;2.03;;;21.10;89.00;;;;;;5071436;28;20035;-53
2021/12/12 13:38:04;;;;;;;8.82;2.28;;;21.10;89.00;;;;;;5068336;28;20417;-59
2021/12/12 13:40:40;;;;;;;7.80;2.55;;;21.10;89.00;;;;;;5071860;28;20475;-59
2021/12/12 13:43:20;;;;;;;6.65;2.10;;;21.10;89.20;;;;;;5068770;28;20079;-62
2021/12/12 13:46:30;;;;;;;9.77;2.30;;;21.00;89.70;;;;;;5070569;28;20103;-49
2021/12/12 13:49:20;;;;;;;9.07;2.47;;;21.00;89.50;;;;;;5072067;28;20021;-55
2021/12/12 13:51:52;;;;;;;6.43;1.88;;;21.10;90.20;;;;;;5066820;28;20025;-57
2021/12/12 13:54:50;;;;;;;9.23;1.60;;;21.00;90.10;;;;;;5073038;28;20505;-56
2021/12/12 13:57:30;;;;;;;5.55;1.92;;;21.00;90.20;;;;;;5070205;28;20056;-59